sensor_id;sensor_type;location;lat;lon;timestamp;temperature;humidity
33699;DHT22;20032;52.436;13.312;2023-05-19T00:01:06;12.00;99.90
33699;DHT22;20032;52.436;13.312;2023-05-19T00:03:32;11.90;99.90
33699;DHT22;20032;52.436;13.312;2023-05-19T00:06:00;12.00;99.90
33699;DHT22;20032;52.436;13.312;2023-05-19T00:08:29;11.90;99.90
33699;DHT22;20032;52.436;13.312;2023-05-19T00:10:56;11.90;99.90
33699;DHT22;20032;52.436;13.312;2023-05-19T00:13:22;11.90;99.90
33699;DHT22;20032;52.436;13.312;2023-05-19T00:15:49;11.90;99.90
33699;DHT22;20032;52.436;13.312;2023-05-19T00:18:15;11.90;99.90
33699;DHT22;20032;52.436;13.312;2023-05-19T00:20:41;11.80;99.90
33699;DHT22;20032;52.436;13.312;2023-05-19T00:23:07;11.80;99.90
33699;DHT22;20032;52.436;13.312;2023-05-19T00:25:32;11.80;99.90
33699;DHT22;20032;52.436;13.312;2023-05-19T00:27:58;11.70;99.90
33699;DHT22;20032;52.436;13.312;2023-05-19T00:30:23;11.60;99.90
33699;DHT22;20032;52.436;13.312;2023-05-19T00:32:50;11.60;99.90
33699;DHT22;20032;52.436;13.312;2023-05-19T00:35:15;11.60;99.90
33699;DHT22;20032;52.436;13.312;2023-05-19T00:37:41;11.70;99.90
33699;DHT22;20032;52.436;13.312;2023-05-19T00:40:07;11.60;99.90
33699;DHT22;20032;52.436;13.312;2023-05-19T00:42:34;11.60;99.90
33699;DHT22;20032;52.436;13.312;2023-05-19T00:45:00;11.60;99.90
33699;DHT22;20032;52.436;13.312;2023-05-19T00:47:25;11.50;99.90
33699;DHT22;20032;52.436;13.312;2023-05-19T00:49:51;11.50;99.90
33699;DHT22;20032;52.436;13.312;2023-05-19T00:52:16;11.50;99.90
33699;DHT22;20032;52.436;13.312;2023-05-19T00:54:43;11.50;99.90
33699;DHT22;20032;52.436;13.312;2023-05-19T00:57:08;11.50;99.90
33699;DHT22;20032;52.436;13.312;2023-05-19T00:59:34;11.40;99.90
33699;DHT22;20032;52.436;13.312;2023-05-19T01:01:59;11.30;99.90
33699;DHT22;20032;52.436;13.312;2023-05-19T01:04:27;11.30;99.90
33699;DHT22;20032;52.436;13.312;2023-05-19T01:06:54;11.30;99.90
33699;DHT22;20032;52.436;13.312;2023-05-19T01:09:21;11.30;99.90
33699;DHT22;20032;52.436;13.312;2023-05-19T01:11:48;11.30;99.90
33699;DHT22;20032;52.436;13.312;2023-05-19T01:14:14;11.30;99.90
33699;DHT22;20032;52.436;13.312;2023-05-19T01:16:46;11.30;99.90
33699;DHT22;20032;52.436;13.312;2023-05-19T01:19:40;11.20;99.90
33699;DHT22;20032;52.436;13.312;2023-05-19T01:22:38;11.30;99.90
33699;DHT22;20032;52.436;13.312;2023-05-19T01:25:35;11.20;99.90
33699;DHT22;20032;52.436;13.312;2023-05-19T01:30:48;11.10;99.90
33699;DHT22;20032;52.436;13.312;2023-05-19T01:33:17;11.20;99.90
33699;DHT22;20032;52.436;13.312;2023-05-19T01:35:44;11.10;99.90
33699;DHT22;20032;52.436;13.312;2023-05-19T01:38:10;11.20;99.90
33699;DHT22;20032;52.436;13.312;2023-05-19T01:40:38;11.20;99.90
33699;DHT22;20032;52.436;13.312;2023-05-19T01:43:06;11.10;99.90
33699;DHT22;20032;52.436;13.312;2023-05-19T01:45:33;11.00;99.90
33699;DHT22;20032;52.436;13.312;2023-05-19T01:48:01;11.00;99.90
33699;DHT22;20032;52.436;13.312;2023-05-19T01:50:27;11.00;99.90
33699;DHT22;20032;52.436;13.312;2023-05-19T01:52:53;11.00;99.90
33699;DHT22;20032;52.436;13.312;2023-05-19T01:55:19;11.00;99.90
33699;DHT22;20032;52.436;13.312;2023-05-19T01:57:59;11.00;99.90
33699;DHT22;20032;52.436;13.312;2023-05-19T02:00:56;10.90;99.90
33699;DHT22;20032;52.436;13.312;2023-05-19T02:03:41;11.00;99.90
33699;DHT22;20032;52.436;13.312;2023-05-19T02:06:44;10.90;99.90
33699;DHT22;20032;52.436;13.312;2023-05-19T02:09:02;10.70;99.90
33699;DHT22;20032;52.436;13.312;2023-05-19T02:11:35;10.60;99.90
33699;DHT22;20032;52.436;13.312;2023-05-19T02:14:11;10.60;99.90
33699;DHT22;20032;52.436;13.312;2023-05-19T02:16:38;10.70;99.90
33699;DHT22;20032;52.436;13.312;2023-05-19T02:19:03;10.60;99.90
33699;DHT22;20032;52.436;13.312;2023-05-19T02:21:29;10.70;99.90
33699;DHT22;20032;52.436;13.312;2023-05-19T02:23:55;10.70;99.90
33699;DHT22;20032;52.436;13.312;2023-05-19T02:26:20;10.60;99.90
33699;DHT22;20032;52.436;13.312;2023-05-19T02:28:47;10.70;99.90
33699;DHT22;20032;52.436;13.312;2023-05-19T02:31:15;10.70;99.90
33699;DHT22;20032;52.436;13.312;2023-05-19T02:33:40;10.70;99.90
33699;DHT22;20032;52.436;13.312;2023-05-19T02:36:07;10.70;99.90
33699;DHT22;20032;52.436;13.312;2023-05-19T02:38:33;10.60;99.90
33699;DHT22;20032;52.436;13.312;2023-05-19T02:40:58;10.60;99.90
33699;DHT22;20032;52.436;13.312;2023-05-19T02:43:24;10.60;99.90
33699;DHT22;20032;52.436;13.312;2023-05-19T02:45:49;10.60;99.90
33699;DHT22;20032;52.436;13.312;2023-05-19T02:48:15;10.50;99.90
33699;DHT22;20032;52.436;13.312;2023-05-19T02:50:40;10.60;99.90
33699;DHT22;20032;52.436;13.312;2023-05-19T02:53:07;10.50;99.90
33699;DHT22;20032;52.436;13.312;2023-05-19T02:55:32;10.50;99.90
33699;DHT22;20032;52.436;13.312;2023-05-19T02:57:58;10.50;99.90
33699;DHT22;20032;52.436;13.312;2023-05-19T03:00:23;10.50;99.90
33699;DHT22;20032;52.436;13.312;2023-05-19T03:02:49;10.60;99.90
33699;DHT22;20032;52.436;13.312;2023-05-19T03:05:17;10.60;99.90
33699;DHT22;20032;52.436;13.312;2023-05-19T03:07:42;10.70;99.90
33699;DHT22;20032;52.436;13.312;2023-05-19T03:10:08;10.60;99.90
33699;DHT22;20032;52.436;13.312;2023-05-19T03:12:33;10.70;99.90
33699;DHT22;20032;52.436;13.312;2023-05-19T03:14:59;10.70;99.90
33699;DHT22;20032;52.436;13.312;2023-05-19T03:17:25;10.70;99.90
33699;DHT22;20032;52.436;13.312;2023-05-19T03:19:50;10.80;99.90
33699;DHT22;20032;52.436;13.312;2023-05-19T03:22:16;10.80;99.90
33699;DHT22;20032;52.436;13.312;2023-05-19T03:24:43;10.80;99.90
33699;DHT22;20032;52.436;13.312;2023-05-19T03:27:08;10.80;99.90
33699;DHT22;20032;52.436;13.312;2023-05-19T03:29:34;10.80;99.90
33699;DHT22;20032;52.436;13.312;2023-05-19T03:31:59;10.70;99.90
33699;DHT22;20032;52.436;13.312;2023-05-19T03:34:25;10.70;99.90
33699;DHT22;20032;52.436;13.312;2023-05-19T03:36:51;10.70;99.90
33699;DHT22;20032;52.436;13.312;2023-05-19T03:39:16;10.80;99.90
33699;DHT22;20032;52.436;13.312;2023-05-19T03:41:42;10.80;99.90
33699;DHT22;20032;52.436;13.312;2023-05-19T03:44:07;10.70;99.90
33699;DHT22;20032;52.436;13.312;2023-05-19T03:46:33;10.80;99.90
33699;DHT22;20032;52.436;13.312;2023-05-19T03:48:58;10.80;99.90
33699;DHT22;20032;52.436;13.312;2023-05-19T03:51:24;10.80;99.90
33699;DHT22;20032;52.436;13.312;2023-05-19T03:53:50;10.90;99.90
33699;DHT22;20032;52.436;13.312;2023-05-19T03:56:16;10.90;99.90
33699;DHT22;20032;52.436;13.312;2023-05-19T03:58:42;10.90;99.90
33699;DHT22;20032;52.436;13.312;2023-05-19T04:01:09;10.90;99.90
33699;DHT22;20032;52.436;13.312;2023-05-19T04:03:34;10.90;99.90
33699;DHT22;20032;52.436;13.312;2023-05-19T04:06:00;10.90;99.90
33699;DHT22;20032;52.436;13.312;2023-05-19T04:08:25;10.90;99.90
33699;DHT22;20032;52.436;13.312;2023-05-19T04:10:51;11.00;99.90
33699;DHT22;20032;52.436;13.312;2023-05-19T04:13:16;11.10;99.90
33699;DHT22;20032;52.436;13.312;2023-05-19T04:15:42;11.00;99.90
33699;DHT22;20032;52.436;13.312;2023-05-19T04:18:07;11.10;99.90
33699;DHT22;20032;52.436;13.312;2023-05-19T04:20:33;11.20;99.90
33699;DHT22;20032;52.436;13.312;2023-05-19T04:22:58;11.20;99.90
33699;DHT22;20032;52.436;13.312;2023-05-19T04:25:24;11.20;99.90
33699;DHT22;20032;52.436;13.312;2023-05-19T04:27:49;11.20;99.90
33699;DHT22;20032;52.436;13.312;2023-05-19T04:30:15;11.20;99.90
33699;DHT22;20032;52.436;13.312;2023-05-19T04:32:46;11.20;99.90
33699;DHT22;20032;52.436;13.312;2023-05-19T04:35:13;11.20;99.90
33699;DHT22;20032;52.436;13.312;2023-05-19T04:37:42;11.30;99.90
33699;DHT22;20032;52.436;13.312;2023-05-19T04:40:11;11.30;99.90
33699;DHT22;20032;52.436;13.312;2023-05-19T04:42:36;11.40;99.90
33699;DHT22;20032;52.436;13.312;2023-05-19T04:45:06;11.40;99.90
33699;DHT22;20032;52.436;13.312;2023-05-19T04:47:33;11.40;99.90
33699;DHT22;20032;52.436;13.312;2023-05-19T04:50:01;11.40;99.90
33699;DHT22;20032;52.436;13.312;2023-05-19T04:52:28;11.30;99.90
33699;DHT22;20032;52.436;13.312;2023-05-19T04:54:53;11.30;99.90
33699;DHT22;20032;52.436;13.312;2023-05-19T04:57:19;11.40;99.90
33699;DHT22;20032;52.436;13.312;2023-05-19T04:59:44;11.40;99.90
33699;DHT22;20032;52.436;13.312;2023-05-19T05:02:10;11.40;99.90
33699;DHT22;20032;52.436;13.312;2023-05-19T05:04:36;11.40;99.90
33699;DHT22;20032;52.436;13.312;2023-05-19T05:07:04;11.40;99.90
33699;DHT22;20032;52.436;13.312;2023-05-19T05:09:30;11.50;99.90
33699;DHT22;20032;52.436;13.312;2023-05-19T05:11:56;11.50;99.90
33699;DHT22;20032;52.436;13.312;2023-05-19T05:14:21;11.50;99.90
33699;DHT22;20032;52.436;13.312;2023-05-19T05:16:48;11.40;99.90
33699;DHT22;20032;52.436;13.312;2023-05-19T05:19:13;11.40;99.90
33699;DHT22;20032;52.436;13.312;2023-05-19T05:21:39;11.50;99.90
33699;DHT22;20032;52.436;13.312;2023-05-19T05:24:06;11.50;99.90
33699;DHT22;20032;52.436;13.312;2023-05-19T05:26:33;11.50;99.90
33699;DHT22;20032;52.436;13.312;2023-05-19T05:28:59;11.60;99.90
33699;DHT22;20032;52.436;13.312;2023-05-19T05:31:25;11.60;99.90
33699;DHT22;20032;52.436;13.312;2023-05-19T05:33:51;11.70;99.90
33699;DHT22;20032;52.436;13.312;2023-05-19T05:36:16;11.70;99.90
33699;DHT22;20032;52.436;13.312;2023-05-19T05:38:42;11.70;99.90
33699;DHT22;20032;52.436;13.312;2023-05-19T05:41:07;11.70;99.90
33699;DHT22;20032;52.436;13.312;2023-05-19T05:43:33;11.70;99.90
33699;DHT22;20032;52.436;13.312;2023-05-19T05:45:58;11.70;99.90
33699;DHT22;20032;52.436;13.312;2023-05-19T05:48:24;11.70;99.90
33699;DHT22;20032;52.436;13.312;2023-05-19T05:50:51;11.80;99.90
33699;DHT22;20032;52.436;13.312;2023-05-19T05:53:18;11.90;99.90
33699;DHT22;20032;52.436;13.312;2023-05-19T05:55:45;11.90;99.90
33699;DHT22;20032;52.436;13.312;2023-05-19T05:58:10;11.90;99.90
33699;DHT22;20032;52.436;13.312;2023-05-19T06:00:37;11.90;99.90
33699;DHT22;20032;52.436;13.312;2023-05-19T06:03:02;11.90;99.90
33699;DHT22;20032;52.436;13.312;2023-05-19T06:05:29;11.90;99.90
33699;DHT22;20032;52.436;13.312;2023-05-19T06:07:54;12.00;99.90
33699;DHT22;20032;52.436;13.312;2023-05-19T06:10:20;12.00;99.90
33699;DHT22;20032;52.436;13.312;2023-05-19T06:12:45;12.10;99.90
33699;DHT22;20032;52.436;13.312;2023-05-19T06:15:11;12.10;99.90
33699;DHT22;20032;52.436;13.312;2023-05-19T06:17:36;12.20;99.90
33699;DHT22;20032;52.436;13.312;2023-05-19T06:20:02;12.30;99.90
33699;DHT22;20032;52.436;13.312;2023-05-19T06:22:30;12.30;99.90
33699;DHT22;20032;52.436;13.312;2023-05-19T06:24:55;12.30;99.90
33699;DHT22;20032;52.436;13.312;2023-05-19T06:27:21;12.40;99.90
33699;DHT22;20032;52.436;13.312;2023-05-19T06:29:46;12.50;99.90
33699;DHT22;20032;52.436;13.312;2023-05-19T06:32:12;12.60;99.90
33699;DHT22;20032;52.436;13.312;2023-05-19T06:34:37;12.70;99.90
33699;DHT22;20032;52.436;13.312;2023-05-19T06:37:04;12.80;99.90
33699;DHT22;20032;52.436;13.312;2023-05-19T06:39:30;12.90;99.90
33699;DHT22;20032;52.436;13.312;2023-05-19T06:41:55;13.00;99.90
33699;DHT22;20032;52.436;13.312;2023-05-19T06:44:21;13.10;99.90
33699;DHT22;20032;52.436;13.312;2023-05-19T06:46:46;13.20;99.90
33699;DHT22;20032;52.436;13.312;2023-05-19T06:49:12;13.20;99.90
33699;DHT22;20032;52.436;13.312;2023-05-19T06:51:38;13.30;99.90
33699;DHT22;20032;52.436;13.312;2023-05-19T06:54:03;13.40;99.90
33699;DHT22;20032;52.436;13.312;2023-05-19T06:56:29;13.50;99.90
33699;DHT22;20032;52.436;13.312;2023-05-19T06:58:54;13.60;99.90
33699;DHT22;20032;52.436;13.312;2023-05-19T07:01:20;13.70;99.90
33699;DHT22;20032;52.436;13.312;2023-05-19T07:03:45;13.80;99.90
33699;DHT22;20032;52.436;13.312;2023-05-19T07:06:11;13.90;99.90
33699;DHT22;20032;52.436;13.312;2023-05-19T07:08:37;13.90;99.90
33699;DHT22;20032;52.436;13.312;2023-05-19T07:11:02;14.00;99.90
33699;DHT22;20032;52.436;13.312;2023-05-19T07:13:28;14.10;99.90
33699;DHT22;20032;52.436;13.312;2023-05-19T07:15:53;14.20;99.90
33699;DHT22;20032;52.436;13.312;2023-05-19T07:18:20;14.30;99.90
33699;DHT22;20032;52.436;13.312;2023-05-19T07:20:46;14.50;99.90
33699;DHT22;20032;52.436;13.312;2023-05-19T07:23:11;14.60;99.90
33699;DHT22;20032;52.436;13.312;2023-05-19T07:25:37;14.60;99.90
33699;DHT22;20032;52.436;13.312;2023-05-19T07:28:02;14.90;99.90
33699;DHT22;20032;52.436;13.312;2023-05-19T07:30:28;15.00;99.90
33699;DHT22;20032;52.436;13.312;2023-05-19T07:32:54;15.20;99.90
33699;DHT22;20032;52.436;13.312;2023-05-19T07:35:20;15.20;99.90
33699;DHT22;20032;52.436;13.312;2023-05-19T07:37:48;15.30;99.90
33699;DHT22;20032;52.436;13.312;2023-05-19T07:40:13;15.40;99.90
33699;DHT22;20032;52.436;13.312;2023-05-19T07:42:40;15.50;99.90
33699;DHT22;20032;52.436;13.312;2023-05-19T07:45:06;15.60;99.90
33699;DHT22;20032;52.436;13.312;2023-05-19T07:47:31;15.80;99.90
33699;DHT22;20032;52.436;13.312;2023-05-19T07:49:57;15.80;99.90
33699;DHT22;20032;52.436;13.312;2023-05-19T07:52:22;15.80;99.90
33699;DHT22;20032;52.436;13.312;2023-05-19T07:54:48;15.90;99.90
33699;DHT22;20032;52.436;13.312;2023-05-19T07:57:13;16.10;99.90
33699;DHT22;20032;52.436;13.312;2023-05-19T07:59:39;16.30;99.90
33699;DHT22;20032;52.436;13.312;2023-05-19T08:02:05;16.40;99.90
33699;DHT22;20032;52.436;13.312;2023-05-19T08:04:30;16.50;99.90
33699;DHT22;20032;52.436;13.312;2023-05-19T08:06:56;16.80;99.70
33699;DHT22;20032;52.436;13.312;2023-05-19T08:09:22;16.90;99.90
33699;DHT22;20032;52.436;13.312;2023-05-19T08:11:47;17.00;99.80
33699;DHT22;20032;52.436;13.312;2023-05-19T08:14:14;17.20;99.70
33699;DHT22;20032;52.436;13.312;2023-05-19T08:16:39;17.30;98.90
33699;DHT22;20032;52.436;13.312;2023-05-19T08:19:07;17.30;98.80
33699;DHT22;20032;52.436;13.312;2023-05-19T08:21:33;17.30;98.80
33699;DHT22;20032;52.436;13.312;2023-05-19T08:23:59;17.30;98.40
33699;DHT22;20032;52.436;13.312;2023-05-19T08:26:26;17.30;99.00
33699;DHT22;20032;52.436;13.312;2023-05-19T08:28:51;17.20;98.80
33699;DHT22;20032;52.436;13.312;2023-05-19T08:31:17;17.20;98.70
33699;DHT22;20032;52.436;13.312;2023-05-19T08:33:43;17.30;98.40
33699;DHT22;20032;52.436;13.312;2023-05-19T08:36:09;17.30;98.30
33699;DHT22;20032;52.436;13.312;2023-05-19T08:38:34;17.40;98.80
33699;DHT22;20032;52.436;13.312;2023-05-19T08:41:00;17.50;99.30
33699;DHT22;20032;52.436;13.312;2023-05-19T08:43:26;17.50;98.10
33699;DHT22;20032;52.436;13.312;2023-05-19T08:45:52;17.50;97.90
33699;DHT22;20032;52.436;13.312;2023-05-19T08:48:19;17.50;97.80
33699;DHT22;20032;52.436;13.312;2023-05-19T08:51:54;17.50;98.10
33699;DHT22;20032;52.436;13.312;2023-05-19T08:53:39;17.60;99.40
33699;DHT22;20032;52.436;13.312;2023-05-19T08:56:13;17.50;97.60
33699;DHT22;20032;52.436;13.312;2023-05-19T08:58:41;17.30;97.60
33699;DHT22;20032;52.436;13.312;2023-05-19T09:01:12;17.30;97.90
33699;DHT22;20032;52.436;13.312;2023-05-19T09:03:38;17.20;98.20
33699;DHT22;20032;52.436;13.312;2023-05-19T09:06:05;17.40;97.90
33699;DHT22;20032;52.436;13.312;2023-05-19T09:08:33;17.60;98.10
33699;DHT22;20032;52.436;13.312;2023-05-19T09:10:58;17.60;97.90
33699;DHT22;20032;52.436;13.312;2023-05-19T09:13:25;17.60;97.80
33699;DHT22;20032;52.436;13.312;2023-05-19T09:15:51;17.70;97.90
33699;DHT22;20032;52.436;13.312;2023-05-19T09:18:17;17.70;98.30
33699;DHT22;20032;52.436;13.312;2023-05-19T09:20:44;18.00;97.60
33699;DHT22;20032;52.436;13.312;2023-05-19T09:23:12;18.10;96.70
33699;DHT22;20032;52.436;13.312;2023-05-19T09:25:47;17.80;94.60
33699;DHT22;20032;52.436;13.312;2023-05-19T09:28:13;17.60;96.00
33699;DHT22;20032;52.436;13.312;2023-05-19T09:30:39;17.80;95.40
33699;DHT22;20032;52.436;13.312;2023-05-19T09:33:04;18.10;95.30
33699;DHT22;20032;52.436;13.312;2023-05-19T09:35:34;18.60;95.60
33699;DHT22;20032;52.436;13.312;2023-05-19T09:38:00;18.60;94.90
33699;DHT22;20032;52.436;13.312;2023-05-19T09:40:27;18.70;94.70
33699;DHT22;20032;52.436;13.312;2023-05-19T09:42:53;18.80;93.70
33699;DHT22;20032;52.436;13.312;2023-05-19T09:45:18;19.00;93.50
33699;DHT22;20032;52.436;13.312;2023-05-19T09:47:44;19.20;93.00
33699;DHT22;20032;52.436;13.312;2023-05-19T09:50:11;19.30;92.60
33699;DHT22;20032;52.436;13.312;2023-05-19T09:52:39;19.40;91.60
33699;DHT22;20032;52.436;13.312;2023-05-19T09:55:11;19.50;92.00
33699;DHT22;20032;52.436;13.312;2023-05-19T09:57:37;19.60;91.70
33699;DHT22;20032;52.436;13.312;2023-05-19T10:00:05;19.70;91.80
33699;DHT22;20032;52.436;13.312;2023-05-19T10:02:36;19.70;91.10
33699;DHT22;20032;52.436;13.312;2023-05-19T10:05:05;19.40;91.50
33699;DHT22;20032;52.436;13.312;2023-05-19T10:07:31;19.20;92.80
33699;DHT22;20032;52.436;13.312;2023-05-19T10:09:58;19.20;91.90
33699;DHT22;20032;52.436;13.312;2023-05-19T10:12:25;19.10;91.70
33699;DHT22;20032;52.436;13.312;2023-05-19T10:14:51;19.10;91.80
33699;DHT22;20032;52.436;13.312;2023-05-19T10:17:19;19.00;91.60
33699;DHT22;20032;52.436;13.312;2023-05-19T10:19:46;18.80;91.90
33699;DHT22;20032;52.436;13.312;2023-05-19T10:22:14;19.20;92.10
33699;DHT22;20032;52.436;13.312;2023-05-19T10:24:40;19.60;93.10
33699;DHT22;20032;52.436;13.312;2023-05-19T10:27:09;19.90;92.80
33699;DHT22;20032;52.436;13.312;2023-05-19T10:29:39;20.00;91.40
33699;DHT22;20032;52.436;13.312;2023-05-19T10:32:10;19.70;91.70
33699;DHT22;20032;52.436;13.312;2023-05-19T10:36:09;19.50;91.20
33699;DHT22;20032;52.436;13.312;2023-05-19T10:37:45;19.40;92.50
33699;DHT22;20032;52.436;13.312;2023-05-19T10:40:24;19.30;92.80
33699;DHT22;20032;52.436;13.312;2023-05-19T10:43:01;19.10;92.20
33699;DHT22;20032;52.436;13.312;2023-05-19T10:45:33;19.10;92.80
33699;DHT22;20032;52.436;13.312;2023-05-19T10:48:00;19.30;91.50
33699;DHT22;20032;52.436;13.312;2023-05-19T10:50:26;19.30;91.00
33699;DHT22;20032;52.436;13.312;2023-05-19T10:52:52;19.10;91.30
33699;DHT22;20032;52.436;13.312;2023-05-19T10:55:43;19.00;91.90
33699;DHT22;20032;52.436;13.312;2023-05-19T10:58:10;18.80;91.70
33699;DHT22;20032;52.436;13.312;2023-05-19T11:00:38;18.80;91.90
33699;DHT22;20032;52.436;13.312;2023-05-19T11:05:39;19.20;90.90
33699;DHT22;20032;52.436;13.312;2023-05-19T11:08:05;19.20;91.10
33699;DHT22;20032;52.436;13.312;2023-05-19T11:10:33;19.60;90.70
33699;DHT22;20032;52.436;13.312;2023-05-19T11:12:58;20.00;90.70
33699;DHT22;20032;52.436;13.312;2023-05-19T11:15:25;20.20;90.10
33699;DHT22;20032;52.436;13.312;2023-05-19T11:17:52;20.00;90.00
33699;DHT22;20032;52.436;13.312;2023-05-19T11:20:27;19.90;90.70
33699;DHT22;20032;52.436;13.312;2023-05-19T11:23:13;19.70;90.60
33699;DHT22;20032;52.436;13.312;2023-05-19T11:25:43;19.60;90.50
33699;DHT22;20032;52.436;13.312;2023-05-19T11:28:10;19.50;90.20
33699;DHT22;20032;52.436;13.312;2023-05-19T11:30:38;19.30;90.40
33699;DHT22;20032;52.436;13.312;2023-05-19T11:33:05;19.30;90.50
33699;DHT22;20032;52.436;13.312;2023-05-19T11:35:32;19.40;91.30
33699;DHT22;20032;52.436;13.312;2023-05-19T11:37:58;19.50;90.80
33699;DHT22;20032;52.436;13.312;2023-05-19T11:40:25;19.50;90.70
33699;DHT22;20032;52.436;13.312;2023-05-19T11:42:51;19.50;89.90
33699;DHT22;20032;52.436;13.312;2023-05-19T11:45:16;19.50;90.80
33699;DHT22;20032;52.436;13.312;2023-05-19T11:47:45;19.50;90.10
33699;DHT22;20032;52.436;13.312;2023-05-19T11:50:10;19.60;90.00
33699;DHT22;20032;52.436;13.312;2023-05-19T11:52:36;19.50;89.40
33699;DHT22;20032;52.436;13.312;2023-05-19T11:55:02;19.40;89.40
33699;DHT22;20032;52.436;13.312;2023-05-19T11:57:28;19.40;90.60
33699;DHT22;20032;52.436;13.312;2023-05-19T11:59:53;19.70;90.00
33699;DHT22;20032;52.436;13.312;2023-05-19T12:02:22;19.70;89.60
33699;DHT22;20032;52.436;13.312;2023-05-19T12:04:49;19.80;89.50
33699;DHT22;20032;52.436;13.312;2023-05-19T12:07:16;19.70;89.90
33699;DHT22;20032;52.436;13.312;2023-05-19T12:09:43;19.70;90.30
33699;DHT22;20032;52.436;13.312;2023-05-19T12:12:12;19.50;90.00
33699;DHT22;20032;52.436;13.312;2023-05-19T12:14:38;19.40;89.40
33699;DHT22;20032;52.436;13.312;2023-05-19T12:17:20;19.40;90.10
33699;DHT22;20032;52.436;13.312;2023-05-19T12:19:47;20.00;90.00
33699;DHT22;20032;52.436;13.312;2023-05-19T12:22:14;20.80;89.20
33699;DHT22;20032;52.436;13.312;2023-05-19T12:24:41;21.70;88.60
33699;DHT22;20032;52.436;13.312;2023-05-19T12:27:23;22.20;87.10
33699;DHT22;20032;52.436;13.312;2023-05-19T12:29:49;22.00;83.50
33699;DHT22;20032;52.436;13.312;2023-05-19T12:32:23;21.60;83.80
33699;DHT22;20032;52.436;13.312;2023-05-19T12:34:50;21.00;86.40
33699;DHT22;20032;52.436;13.312;2023-05-19T12:37:15;21.10;85.40
33699;DHT22;20032;52.436;13.312;2023-05-19T12:39:41;21.30;85.20
33699;DHT22;20032;52.436;13.312;2023-05-19T12:42:08;21.10;85.30
33699;DHT22;20032;52.436;13.312;2023-05-19T12:44:41;20.60;86.80
33699;DHT22;20032;52.436;13.312;2023-05-19T12:47:07;20.40;86.90
33699;DHT22;20032;52.436;13.312;2023-05-19T12:49:33;20.30;88.40
33699;DHT22;20032;52.436;13.312;2023-05-19T12:52:00;20.10;89.20
33699;DHT22;20032;52.436;13.312;2023-05-19T12:54:28;20.20;88.40
33699;DHT22;20032;52.436;13.312;2023-05-19T12:56:57;21.20;87.20
33699;DHT22;20032;52.436;13.312;2023-05-19T12:59:24;22.40;85.10
33699;DHT22;20032;52.436;13.312;2023-05-19T13:01:57;22.70;83.10
33699;DHT22;20032;52.436;13.312;2023-05-19T13:04:24;22.10;85.30
33699;DHT22;20032;52.436;13.312;2023-05-19T13:06:51;21.20;85.30
33699;DHT22;20032;52.436;13.312;2023-05-19T13:09:16;20.60;88.10
33699;DHT22;20032;52.436;13.312;2023-05-19T13:11:42;20.40;88.00
33699;DHT22;20032;52.436;13.312;2023-05-19T13:14:08;20.20;87.90
33699;DHT22;20032;52.436;13.312;2023-05-19T13:16:34;20.10;88.40
33699;DHT22;20032;52.436;13.312;2023-05-19T13:19:00;20.00;87.80
33699;DHT22;20032;52.436;13.312;2023-05-19T13:21:25;19.80;89.40
33699;DHT22;20032;52.436;13.312;2023-05-19T13:23:51;20.20;89.30
33699;DHT22;20032;52.436;13.312;2023-05-19T13:26:17;21.10;87.60
33699;DHT22;20032;52.436;13.312;2023-05-19T13:28:43;21.70;85.90
33699;DHT22;20032;52.436;13.312;2023-05-19T13:31:08;21.80;85.00
33699;DHT22;20032;52.436;13.312;2023-05-19T13:33:34;21.50;86.50
33699;DHT22;20032;52.436;13.312;2023-05-19T13:35:59;21.00;87.00
33699;DHT22;20032;52.436;13.312;2023-05-19T13:38:25;20.60;87.50
33699;DHT22;20032;52.436;13.312;2023-05-19T13:40:50;20.20;88.10
33699;DHT22;20032;52.436;13.312;2023-05-19T13:43:16;19.90;87.40
33699;DHT22;20032;52.436;13.312;2023-05-19T13:45:41;19.70;89.10
33699;DHT22;20032;52.436;13.312;2023-05-19T13:48:08;19.80;88.40
33699;DHT22;20032;52.436;13.312;2023-05-19T13:50:35;19.60;87.30
33699;DHT22;20032;52.436;13.312;2023-05-19T13:53:01;19.60;89.90
33699;DHT22;20032;52.436;13.312;2023-05-19T13:55:27;19.70;87.70
33699;DHT22;20032;52.436;13.312;2023-05-19T13:57:53;20.20;88.20
33699;DHT22;20032;52.436;13.312;2023-05-19T14:00:19;20.80;89.70
33699;DHT22;20032;52.436;13.312;2023-05-19T14:02:45;21.50;86.90
33699;DHT22;20032;52.436;13.312;2023-05-19T14:05:10;22.20;84.00
33699;DHT22;20032;52.436;13.312;2023-05-19T14:07:37;22.70;81.80
33699;DHT22;20032;52.436;13.312;2023-05-19T14:10:04;22.30;80.40
33699;DHT22;20032;52.436;13.312;2023-05-19T14:12:31;21.70;82.00
33699;DHT22;20032;52.436;13.312;2023-05-19T14:14:56;21.40;82.80
33699;DHT22;20032;52.436;13.312;2023-05-19T14:17:22;21.20;83.50
33699;DHT22;20032;52.436;13.312;2023-05-19T14:19:47;21.20;83.60
33699;DHT22;20032;52.436;13.312;2023-05-19T14:22:13;21.40;84.30
33699;DHT22;20032;52.436;13.312;2023-05-19T14:24:38;21.50;85.10
33699;DHT22;20032;52.436;13.312;2023-05-19T14:27:04;21.80;83.50
33699;DHT22;20032;52.436;13.312;2023-05-19T14:29:29;21.60;84.00
33699;DHT22;20032;52.436;13.312;2023-05-19T14:31:55;21.30;84.50
33699;DHT22;20032;52.436;13.312;2023-05-19T14:34:21;21.00;85.10
33699;DHT22;20032;52.436;13.312;2023-05-19T14:36:47;20.90;86.00
33699;DHT22;20032;52.436;13.312;2023-05-19T14:39:12;22.10;84.60
33699;DHT22;20032;52.436;13.312;2023-05-19T14:41:38;23.60;81.90
33699;DHT22;20032;52.436;13.312;2023-05-19T14:44:03;24.80;78.30
33699;DHT22;20032;52.436;13.312;2023-05-19T14:46:29;25.20;76.20
33699;DHT22;20032;52.436;13.312;2023-05-19T14:48:54;25.70;74.90
33699;DHT22;20032;52.436;13.312;2023-05-19T14:51:20;26.20;75.40
33699;DHT22;20032;52.436;13.312;2023-05-19T14:53:46;25.60;73.80
33699;DHT22;20032;52.436;13.312;2023-05-19T14:56:13;25.30;74.80
33699;DHT22;20032;52.436;13.312;2023-05-19T14:58:38;24.90;74.30
33699;DHT22;20032;52.436;13.312;2023-05-19T15:01:04;23.90;76.10
33699;DHT22;20032;52.436;13.312;2023-05-19T15:03:29;22.80;79.60
33699;DHT22;20032;52.436;13.312;2023-05-19T15:05:55;22.40;80.70
33699;DHT22;20032;52.436;13.312;2023-05-19T15:08:20;22.90;79.60
33699;DHT22;20032;52.436;13.312;2023-05-19T15:10:48;22.80;80.20
33699;DHT22;20032;52.436;13.312;2023-05-19T15:13:14;23.20;78.50
33699;DHT22;20032;52.436;13.312;2023-05-19T15:15:40;23.00;77.30
33699;DHT22;20032;52.436;13.312;2023-05-19T15:18:05;22.70;79.30
33699;DHT22;20032;52.436;13.312;2023-05-19T15:20:31;22.40;79.40